createdAt,value
2018-11-10T00:00:02.616Z,22.40
2018-11-10T00:03:07.957Z,19.27
2018-11-10T00:06:12.490Z,20.63
2018-11-10T00:09:17.083Z,18.97
2018-11-10T00:12:21.920Z,20.00
2018-11-10T00:15:27.138Z,18.07
2018-11-10T00:18:31.712Z,18.93
2018-11-10T00:21:36.026Z,22.23
2018-11-10T00:24:40.394Z,21.77
2018-11-10T00:27:45.838Z,20.63
2018-11-10T00:30:50.132Z,20.30
2018-11-10T00:33:54.428Z,18.87
2018-11-10T00:36:58.807Z,20.10
2018-11-10T00:40:03.152Z,17.20
2018-11-10T00:43:07.454Z,17.17
2018-11-10T00:46:11.864Z,17.23
2018-11-10T00:49:16.455Z,19.97
2018-11-10T00:52:20.753Z,20.23
2018-11-10T00:55:25.056Z,20.00
2018-11-10T00:58:29.388Z,22.17
2018-11-10T01:01:33.696Z,20.10
2018-11-10T01:04:38.026Z,19.07
2018-11-10T01:07:42.572Z,22.13
2018-11-10T01:10:46.884Z,17.03
2018-11-10T01:13:51.222Z,18.92
2018-11-10T01:16:55.517Z,18.77
2018-11-10T01:19:59.825Z,18.83
2018-11-10T01:23:04.156Z,21.57
2018-11-10T01:26:08.470Z,15.80
2018-11-10T01:29:12.849Z,15.90
2018-11-10T01:32:17.217Z,16.40
2018-11-10T01:35:21.514Z,16.57
2018-11-10T01:38:25.813Z,16.87
2018-11-10T01:41:30.317Z,18.25
2018-11-10T01:44:34.635Z,19.00
2018-11-10T01:47:38.943Z,19.93
2018-11-10T01:50:43.243Z,27.47
2018-11-10T01:53:47.555Z,16.90
2018-11-10T01:56:51.856Z,17.50
2018-11-10T01:59:56.569Z,15.10
2018-11-10T02:03:00.870Z,14.70
2018-11-10T02:06:05.311Z,22.50
2018-11-10T02:09:10.593Z,14.87
2018-11-10T02:12:14.897Z,16.27
2018-11-10T02:15:19.335Z,14.30
2018-11-10T02:18:23.640Z,18.23
2018-11-10T02:21:28.024Z,18.57
2018-11-10T02:24:32.330Z,17.30
2018-11-10T02:27:36.622Z,15.77
2018-11-10T02:30:40.913Z,16.43
2018-11-10T02:33:45.381Z,15.10
2018-11-10T02:36:49.749Z,17.47
2018-11-10T02:39:54.081Z,17.47
2018-11-10T02:42:58.454Z,14.28
2018-11-10T02:46:02.818Z,16.13
2018-11-10T02:49:07.245Z,15.53
2018-11-10T02:52:11.548Z,15.53
2018-11-10T02:55:15.825Z,12.57
2018-11-10T02:58:20.224Z,13.90
2018-11-10T03:01:25.929Z,12.07
2018-11-10T03:04:31.035Z,13.77
2018-11-10T03:07:35.470Z,12.60
2018-11-10T03:10:39.759Z,13.57
2018-11-10T03:13:44.193Z,13.50
2018-11-10T03:16:48.520Z,12.88
2018-11-10T03:19:52.917Z,14.73
2018-11-10T03:22:57.201Z,11.60
2018-11-10T03:26:01.521Z,12.63
2018-11-10T03:29:06.031Z,10.77
2018-11-10T03:32:10.300Z,16.13
2018-11-10T03:35:14.582Z,12.30
2018-11-10T03:38:18.879Z,11.73
2018-11-10T03:41:23.171Z,11.73
2018-11-10T03:44:27.450Z,9.43
2018-11-10T03:47:31.740Z,13.10
2018-11-10T03:50:36.030Z,10.63
2018-11-10T03:53:40.726Z,13.97
2018-11-10T03:56:45.014Z,10.50
2018-11-10T03:59:49.300Z,10.37
2018-11-10T04:02:53.562Z,9.47
2018-11-10T04:05:57.846Z,11.00
2018-11-10T04:09:02.115Z,9.83
2018-11-10T04:12:07.073Z,14.03
2018-11-10T04:15:11.352Z,15.67
2018-11-10T04:18:15.712Z,13.77
2018-11-10T04:21:20.047Z,12.13
2018-11-10T04:24:24.312Z,12.10
2018-11-10T04:27:28.944Z,13.20
2018-11-10T04:30:33.345Z,11.80
2018-11-10T04:33:37.664Z,11.27
2018-11-10T04:36:42.129Z,10.63
2018-11-10T04:39:46.426Z,11.10
2018-11-10T04:42:50.733Z,10.10
2018-11-10T04:45:55.020Z,19.17
2018-11-10T04:48:59.307Z,9.70
2018-11-10T04:52:03.567Z,11.53
2018-11-10T04:55:08.887Z,14.90
2018-11-10T04:58:13.192Z,11.50
2018-11-10T05:01:17.616Z,22.60
2018-11-10T05:04:22.024Z,12.03
2018-11-10T05:07:26.316Z,12.20
2018-11-10T05:10:30.602Z,13.73
2018-11-10T05:13:34.880Z,14.37
2018-11-10T05:16:39.177Z,11.73
2018-11-10T05:19:43.504Z,10.33
2018-11-10T05:22:47.792Z,14.47
2018-11-10T05:25:52.074Z,13.80
2018-11-10T05:28:56.372Z,12.43
2018-11-10T05:32:00.733Z,11.03
2018-11-10T05:35:06.524Z,12.00
2018-11-10T05:38:10.809Z,10.77
2018-11-10T05:41:15.267Z,11.53
2018-11-10T05:44:19.545Z,23.33
2018-11-10T05:47:23.828Z,12.33
2018-11-10T05:50:28.373Z,11.23
2018-11-10T05:53:32.700Z,14.17
2018-11-10T05:56:36.992Z,12.83
2018-11-10T05:59:41.275Z,20.40
2018-11-10T06:02:45.662Z,11.57
2018-11-10T06:05:50.125Z,12.33
2018-11-10T06:08:54.559Z,9.93
2018-11-10T06:11:59.261Z,11.00
2018-11-10T06:15:03.913Z,11.27
2018-11-10T06:18:08.621Z,9.43
2018-11-10T06:21:13.020Z,10.80
2018-11-10T06:24:17.311Z,9.77
2018-11-10T06:27:21.618Z,14.23
2018-11-10T06:30:25.914Z,9.77
2018-11-10T06:33:30.240Z,8.83
2018-11-10T06:36:34.642Z,8.83
2018-11-10T06:39:39.170Z,11.40
2018-11-10T06:42:44.041Z,11.70
2018-11-10T06:45:48.547Z,12.67
2018-11-10T06:48:53.007Z,20.83
2018-11-10T06:51:57.597Z,13.75
2018-11-10T06:55:02.871Z,9.93
2018-11-10T06:58:07.555Z,11.03
2018-11-10T07:01:12.007Z,11.70
2018-11-10T07:04:16.404Z,11.20
2018-11-10T07:07:20.757Z,10.47
2018-11-10T07:10:25.146Z,15.03
2018-11-10T07:13:29.545Z,12.53
2018-11-10T07:19:46.523Z,12.23
2018-11-10T07:22:50.850Z,10.63
2018-11-10T07:25:55.234Z,12.03
2018-11-10T07:28:59.571Z,10.03
2018-11-10T07:32:04.046Z,8.87
2018-11-10T07:35:09.260Z,9.57
2018-11-10T07:38:13.663Z,10.03
2018-11-10T07:41:18.093Z,10.90
2018-11-10T07:44:22.492Z,9.67
2018-11-10T07:47:26.928Z,10.20
2018-11-10T07:50:31.353Z,9.33
2018-11-10T07:53:35.834Z,8.98
2018-11-10T07:56:40.219Z,9.53
2018-11-10T07:59:44.628Z,9.20
2018-11-10T08:02:49.068Z,7.83
2018-11-10T08:05:53.508Z,7.47
2018-11-10T08:08:57.929Z,8.63
2018-11-10T08:12:02.568Z,7.63
2018-11-10T08:15:10.513Z,6.87
2018-11-10T08:18:15.330Z,8.73
2018-11-10T08:21:20.012Z,6.70
2018-11-10T08:24:25.180Z,8.50
2018-11-10T08:27:29.940Z,7.90
2018-11-10T08:30:34.816Z,8.00
2018-11-10T08:33:39.252Z,9.87
2018-11-10T08:36:43.762Z,6.93
2018-11-10T08:39:48.176Z,9.33
2018-11-10T08:42:52.599Z,5.17
2018-11-10T08:45:57.145Z,7.70
2018-11-10T08:49:01.705Z,7.00
2018-11-10T08:52:06.132Z,8.50
2018-11-10T08:55:11.600Z,6.67
2018-11-10T08:58:16.717Z,9.47
2018-11-10T09:01:21.105Z,7.13
2018-11-10T09:04:25.515Z,8.90
2018-11-10T09:07:29.966Z,7.73
2018-11-10T09:10:34.367Z,9.50
2018-11-10T09:13:38.792Z,8.23
2018-11-10T09:16:43.392Z,6.53
2018-11-10T09:19:47.872Z,9.63
2018-11-10T09:22:52.175Z,7.70
2018-11-10T09:25:56.583Z,7.80
2018-11-10T09:29:01.057Z,7.63
2018-11-10T09:32:06.124Z,7.47
2018-11-10T09:35:13.971Z,9.30
2018-11-10T09:38:18.384Z,8.27
2018-11-10T09:41:22.722Z,7.53
2018-11-10T09:44:27.056Z,7.57
2018-11-10T09:47:31.497Z,9.77
2018-11-10T09:50:35.917Z,7.97
2018-11-10T09:53:40.331Z,9.63
2018-11-10T09:56:44.631Z,9.67
2018-11-10T09:59:49.090Z,8.87
2018-11-10T10:02:53.484Z,9.83
2018-11-10T10:05:59.116Z,10.93
2018-11-10T10:09:04.139Z,10.10
2018-11-10T10:12:08.672Z,11.87
2018-11-10T10:15:14.239Z,9.80
2018-11-10T10:18:18.513Z,10.50
2018-11-10T10:21:22.909Z,9.53
2018-11-10T10:24:27.245Z,13.37
2018-11-10T10:27:31.564Z,10.90
2018-11-10T10:30:35.856Z,11.73
2018-11-10T10:33:40.240Z,9.25
2018-11-10T10:36:44.677Z,11.73
2018-11-10T10:39:49.129Z,12.63
2018-11-10T10:42:53.455Z,13.50
2018-11-10T10:53:43.134Z,12.37
2018-11-10T10:56:47.541Z,12.70
2018-11-10T10:59:51.839Z,10.07
2018-11-10T11:02:56.304Z,17.87
2018-11-10T11:06:02.226Z,13.10
2018-11-10T11:09:07.713Z,13.03
2018-11-10T11:12:12.089Z,11.80
2018-11-10T11:15:16.509Z,13.57
2018-11-10T11:18:20.844Z,15.50
2018-11-10T11:21:25.164Z,16.63
2018-11-10T11:24:29.485Z,13.67
2018-11-10T11:27:33.893Z,14.60
2018-11-10T11:30:38.311Z,14.27
2018-11-10T11:33:44.240Z,12.30
2018-11-10T11:36:50.671Z,13.77
2018-11-10T11:39:55.292Z,14.53
2018-11-10T11:42:59.754Z,11.07
2018-11-10T11:46:04.237Z,14.43
2018-11-10T11:49:08.557Z,12.67
2018-11-10T11:52:12.917Z,12.17
2018-11-10T11:55:17.347Z,13.30
2018-11-10T11:58:21.821Z,13.63
2018-11-10T12:01:26.577Z,12.27
2018-11-10T12:04:31.080Z,10.13
2018-11-10T12:07:35.467Z,9.47
2018-11-10T12:10:39.880Z,8.50
2018-11-10T12:13:44.379Z,9.70
2018-11-10T12:16:48.808Z,11.00
2018-11-10T12:19:53.165Z,10.47
2018-11-10T12:22:57.649Z,9.83
2018-11-10T12:26:02.034Z,12.40
2018-11-10T12:29:06.626Z,10.10
2018-11-10T12:32:11.004Z,9.27
2018-11-10T12:35:15.420Z,9.50
2018-11-10T12:38:19.860Z,10.78
2018-11-10T12:41:24.156Z,10.80
2018-11-10T12:44:28.598Z,10.97
2018-11-10T12:47:32.947Z,9.73
2018-11-10T12:50:37.201Z,6.70
2018-11-10T12:53:41.552Z,7.10
2018-11-10T12:56:45.832Z,8.57
2018-11-10T12:59:50.232Z,7.87
2018-11-10T13:02:54.569Z,8.00
2018-11-10T13:06:00.036Z,7.12
2018-11-10T13:09:06.233Z,6.90
2018-11-10T13:12:11.633Z,5.90
2018-11-10T13:15:16.048Z,7.07
2018-11-10T13:18:20.909Z,8.00
2018-11-10T13:21:25.308Z,6.90
2018-11-10T13:24:29.810Z,7.37
2018-11-10T13:27:34.088Z,9.33
2018-11-10T13:30:38.592Z,7.17
2018-11-10T13:33:43.043Z,6.03
2018-11-10T13:36:47.439Z,6.97
2018-11-10T13:39:51.835Z,7.87
2018-11-10T13:42:56.116Z,9.50
2018-11-10T13:46:00.521Z,8.80
2018-11-10T13:49:05.604Z,7.93
2018-11-10T13:52:11.143Z,7.37
2018-11-10T13:55:16.105Z,9.77
2018-11-10T13:58:22.179Z,8.53
2018-11-10T14:01:27.272Z,8.50
2018-11-10T14:04:32.596Z,9.03
2018-11-10T14:07:37.113Z,13.50
2018-11-10T14:10:41.476Z,8.53
2018-11-10T14:13:45.960Z,9.60
2018-11-10T14:16:50.412Z,10.03
2018-11-10T14:19:55.017Z,8.10
2018-11-10T14:22:59.419Z,9.60
2018-11-10T14:26:03.811Z,9.63
2018-11-10T14:29:09.155Z,10.30
2018-11-10T14:32:13.681Z,11.97
2018-11-10T14:35:18.742Z,10.80
2018-11-10T14:38:23.676Z,12.13
2018-11-10T14:41:28.352Z,8.50
2018-11-10T14:44:33.024Z,9.87
2018-11-10T14:47:37.371Z,8.77
2018-11-10T14:50:41.803Z,11.17
2018-11-10T14:53:46.212Z,10.17
2018-11-10T14:56:50.585Z,10.07
2018-11-10T14:59:54.936Z,9.50
2018-11-10T15:02:59.261Z,13.10
2018-11-10T15:06:03.569Z,12.47
2018-11-10T15:09:09.217Z,14.33
2018-11-10T15:12:13.759Z,16.20
2018-11-10T15:15:18.861Z,19.20
2018-11-10T15:18:23.429Z,14.97
2018-11-10T15:21:28.956Z,17.50
2018-11-10T15:24:33.900Z,16.73
2018-11-10T15:27:38.621Z,18.03
2018-11-10T15:30:43.020Z,16.83
2018-11-10T15:33:48.879Z,14.80
2018-11-10T15:36:53.712Z,15.83
2018-11-10T15:39:58.747Z,19.87
2018-11-10T15:43:03.689Z,18.87
2018-11-10T15:46:08.189Z,18.17
2018-11-10T15:49:12.578Z,17.33
2018-11-10T15:52:16.937Z,19.37
2018-11-10T15:55:23.213Z,21.53
2018-11-10T15:58:27.616Z,22.80
2018-11-10T16:01:32.169Z,20.77
2018-11-10T16:04:36.552Z,25.97
2018-11-10T16:07:40.896Z,27.33
2018-11-10T16:13:54.942Z,27.33
2018-11-10T16:16:59.308Z,27.77
2018-11-10T16:20:03.825Z,27.73
2018-11-10T16:23:08.153Z,27.70
2018-11-10T16:26:12.432Z,27.53
2018-11-10T16:29:16.737Z,30.20
2018-11-10T16:32:21.129Z,24.47
2018-11-10T16:35:25.513Z,26.67
2018-11-10T16:38:29.930Z,28.63
2018-11-10T16:41:34.381Z,30.23
2018-11-10T16:44:38.817Z,25.83
2018-11-10T16:47:43.081Z,27.97
2018-11-10T16:50:47.354Z,29.10
2018-11-10T16:53:51.764Z,25.33
2018-11-10T16:56:56.047Z,22.77
2018-11-10T17:00:00.370Z,25.50
2018-11-10T17:03:04.807Z,24.57
2018-11-10T17:06:09.422Z,19.63
2018-11-10T17:09:14.649Z,25.57
2018-11-10T17:12:19.364Z,26.23
2018-11-10T17:15:24.417Z,25.67
2018-11-10T17:18:28.728Z,24.17
2018-11-10T17:21:33.115Z,27.70
2018-11-10T17:35:46.990Z,41.27
2018-11-10T17:38:51.408Z,37.17
2018-11-10T17:41:56.937Z,37.83
2018-11-10T17:45:39.156Z,46.30
2018-11-10T17:48:43.830Z,47.47
2018-11-10T17:51:49.123Z,47.20
2018-11-10T17:54:54.248Z,51.70
2018-11-10T17:57:58.906Z,42.83
2018-11-10T18:01:03.298Z,42.17
2018-11-10T18:04:07.601Z,43.17
2018-11-10T18:07:12.030Z,40.80
2018-11-10T18:10:17.777Z,40.43
2018-11-10T18:13:22.244Z,36.20
2018-11-10T18:16:26.732Z,35.93
2018-11-10T18:19:31.129Z,34.67
2018-11-10T18:22:35.487Z,39.20
2018-11-10T18:25:39.833Z,44.57
2018-11-10T18:28:44.195Z,48.48
2018-11-10T18:31:48.574Z,42.37
2018-11-10T18:34:52.948Z,39.27
2018-11-10T18:37:57.284Z,33.60
2018-11-10T18:41:01.601Z,31.43
2018-11-10T18:44:06.082Z,31.53
2018-11-10T18:47:10.519Z,29.40
2018-11-10T18:50:15.925Z,25.10
2018-11-10T18:53:20.245Z,22.53
2018-11-10T18:56:24.569Z,21.50
2018-11-10T18:59:28.945Z,27.87
2018-11-10T19:02:33.324Z,32.58
2018-11-10T19:05:37.696Z,23.00
2018-11-10T19:08:42.090Z,19.53
2018-11-10T19:11:46.556Z,29.60
2018-11-10T19:14:50.909Z,18.63
2018-11-10T19:17:55.296Z,35.00
2018-11-10T19:20:59.741Z,32.30
2018-11-10T19:24:04.248Z,29.00
2018-11-10T19:27:08.633Z,41.40
2018-11-10T19:30:16.772Z,41.10
2018-11-10T19:33:21.063Z,32.27
2018-11-10T19:36:25.403Z,37.28
2018-11-10T19:39:29.697Z,37.10
2018-11-10T19:42:34.158Z,34.00
2018-11-10T19:45:38.457Z,30.67
2018-11-10T19:48:42.873Z,31.47
2018-11-10T19:51:47.435Z,31.27
2018-11-10T19:54:51.513Z,35.93
2018-11-10T19:57:56.364Z,37.70
2018-11-10T20:01:01.914Z,40.74
2018-11-10T20:11:34.307Z,35.10
2018-11-10T20:14:38.746Z,30.63
2018-11-10T20:17:44.586Z,41.60
2018-11-10T20:20:50.261Z,40.13
2018-11-10T20:24:05.322Z,53.33
2018-11-10T20:30:58.726Z,36.10
2018-11-10T20:34:04.444Z,40.77
2018-11-10T20:37:11.133Z,30.70
2018-11-10T20:40:16.781Z,49.47
2018-11-10T20:43:22.860Z,27.77
2018-11-10T20:46:28.603Z,28.83
2018-11-10T20:49:36.938Z,31.37
2018-11-10T20:52:48.903Z,36.50
2018-11-10T20:56:17.743Z,29.50
2018-11-10T20:59:32.891Z,26.87
2018-11-10T21:02:52.887Z,27.85
2018-11-10T21:06:24.668Z,27.47
2018-11-10T21:09:28.964Z,20.90
2018-11-10T21:12:43.055Z,25.00
2018-11-10T21:15:55.427Z,22.07
2018-11-10T21:19:01.023Z,23.73
2018-11-10T21:22:12.306Z,22.13
2018-11-10T21:25:18.447Z,24.87
2018-11-10T21:28:23.737Z,18.97
2018-11-10T21:31:29.948Z,21.97
2018-11-10T21:34:37.426Z,24.13
2018-11-10T21:37:42.886Z,20.08
2018-11-10T21:40:48.743Z,17.77
2018-11-10T21:43:53.367Z,19.70
2018-11-10T21:46:58.663Z,20.13
2018-11-10T21:50:03.781Z,21.47
2018-11-10T21:53:09.396Z,24.15
2018-11-10T21:56:14.699Z,23.67
2018-11-10T21:59:20.623Z,18.90
2018-11-10T22:02:27.585Z,21.10
2018-11-10T22:05:32.493Z,15.17
2018-11-10T22:08:37.510Z,16.60
2018-11-10T22:11:44.051Z,17.83
2018-11-10T22:14:49.565Z,16.93
2018-11-10T22:17:54.119Z,14.77
2018-11-10T22:20:58.453Z,22.43
2018-11-10T22:24:02.923Z,17.00
2018-11-10T22:27:07.543Z,18.90
2018-11-10T22:30:13.702Z,16.93
2018-11-10T22:33:18.058Z,13.87
2018-11-10T22:36:22.306Z,12.73
2018-11-10T22:39:26.551Z,13.83
2018-11-10T22:42:30.816Z,14.20
2018-11-10T22:45:35.066Z,12.07
2018-11-10T22:49:26.109Z,16.65
2018-11-10T22:52:30.371Z,12.83
2018-11-10T22:55:34.686Z,12.07
2018-11-10T22:58:38.975Z,10.63
2018-11-10T23:01:43.359Z,12.75
2018-11-10T23:04:47.615Z,10.13
2018-11-10T23:07:51.979Z,15.63
2018-11-10T23:10:56.339Z,11.07
2018-11-10T23:14:00.611Z,11.63
2018-11-10T23:17:05.190Z,15.03
2018-11-10T23:20:11.385Z,14.07
2018-11-10T23:23:15.700Z,18.90
2018-11-10T23:26:19.928Z,15.13
2018-11-10T23:29:24.244Z,11.93
2018-11-10T23:32:28.589Z,11.07
2018-11-10T23:35:32.892Z,11.23
2018-11-10T23:38:37.171Z,12.73
2018-11-10T23:41:41.977Z,12.57
2018-11-10T23:44:46.226Z,14.57
2018-11-10T23:47:50.555Z,12.33
2018-11-10T23:50:54.823Z,12.80
2018-11-10T23:53:59.236Z,18.13
2018-11-10T23:57:03.476Z,12.45
